sensor_id;sensor_type;location;lat;lon;timestamp;temperature;humidity
7562;DHT22;3822;48.784;9.174;2022-11-20T00:01:06;8.70;96.00
7562;DHT22;3822;48.784;9.174;2022-11-20T00:03:32;8.70;96.10
7562;DHT22;3822;48.784;9.174;2022-11-20T00:06:02;8.70;96.10
7562;DHT22;3822;48.784;9.174;2022-11-20T00:08:30;8.60;96.10
7562;DHT22;3822;48.784;9.174;2022-11-20T00:10:56;8.60;96.10
7562;DHT22;3822;48.784;9.174;2022-11-20T00:13:23;8.70;96.10
7562;DHT22;3822;48.784;9.174;2022-11-20T00:15:56;8.10;95.90
7562;DHT22;3822;48.784;9.174;2022-11-20T00:18:23;8.70;96.10
7562;DHT22;3822;48.784;9.174;2022-11-20T00:20:49;10.60;96.40
7562;DHT22;3822;48.784;9.174;2022-11-20T00:23:15;8.70;96.10
7562;DHT22;3822;48.784;9.174;2022-11-20T00:25:42;8.80;96.20
7562;DHT22;3822;48.784;9.174;2022-11-20T00:28:08;8.80;96.20
7562;DHT22;3822;48.784;9.174;2022-11-20T00:30:34;8.80;96.20
7562;DHT22;3822;48.784;9.174;2022-11-20T00:33:00;8.80;96.20
7562;DHT22;3822;48.784;9.174;2022-11-20T00:35:47;8.80;96.20
7562;DHT22;3822;48.784;9.174;2022-11-20T00:38:13;8.90;96.10
7562;DHT22;3822;48.784;9.174;2022-11-20T00:40:39;8.90;96.00
7562;DHT22;3822;48.784;9.174;2022-11-20T00:43:06;8.80;95.70
7562;DHT22;3822;48.784;9.174;2022-11-20T00:45:32;8.80;95.60
7562;DHT22;3822;48.784;9.174;2022-11-20T00:47:58;8.80;95.50
7562;DHT22;3822;48.784;9.174;2022-11-20T00:50:24;8.70;95.30
7562;DHT22;3822;48.784;9.174;2022-11-20T00:52:51;8.70;95.20
7562;DHT22;3822;48.784;9.174;2022-11-20T00:55:17;8.70;95.10
7562;DHT22;3822;48.784;9.174;2022-11-20T00:57:43;8.70;95.00
7562;DHT22;3822;48.784;9.174;2022-11-20T01:00:10;8.60;94.90
7562;DHT22;3822;48.784;9.174;2022-11-20T01:02:36;8.60;94.90
7562;DHT22;3822;48.784;9.174;2022-11-20T01:05:02;8.60;94.90
7562;DHT22;3822;48.784;9.174;2022-11-20T01:07:29;9.30;95.10
7562;DHT22;3822;48.784;9.174;2022-11-20T01:09:55;8.60;94.80
7562;DHT22;3822;48.784;9.174;2022-11-20T01:12:22;8.60;94.80
7562;DHT22;3822;48.784;9.174;2022-11-20T01:14:48;8.60;94.80
7562;DHT22;3822;48.784;9.174;2022-11-20T01:17:14;8.70;94.90
7562;DHT22;3822;48.784;9.174;2022-11-20T01:19:40;8.70;94.70
7562;DHT22;3822;48.784;9.174;2022-11-20T01:22:07;8.70;94.70
7562;DHT22;3822;48.784;9.174;2022-11-20T01:24:33;8.70;94.60
7562;DHT22;3822;48.784;9.174;2022-11-20T01:26:59;8.70;94.50
7562;DHT22;3822;48.784;9.174;2022-11-20T01:29:26;8.70;94.40
7562;DHT22;3822;48.784;9.174;2022-11-20T01:31:52;8.70;94.40
7562;DHT22;3822;48.784;9.174;2022-11-20T01:34:19;8.70;94.40
7562;DHT22;3822;48.784;9.174;2022-11-20T01:36:48;8.70;94.30
7562;DHT22;3822;48.784;9.174;2022-11-20T01:39:18;8.70;94.30
7562;DHT22;3822;48.784;9.174;2022-11-20T01:41:45;8.70;94.30
7562;DHT22;3822;48.784;9.174;2022-11-20T01:47:20;8.70;94.20
7562;DHT22;3822;48.784;9.174;2022-11-20T01:49:50;8.70;94.20
7562;DHT22;3822;48.784;9.174;2022-11-20T01:52:21;8.70;94.10
7562;DHT22;3822;48.784;9.174;2022-11-20T01:54:52;8.70;94.00
7562;DHT22;3822;48.784;9.174;2022-11-20T01:57:22;8.80;94.10
7562;DHT22;3822;48.784;9.174;2022-11-20T01:59:54;8.80;94.30
7562;DHT22;3822;48.784;9.174;2022-11-20T02:02:24;8.80;93.90
7562;DHT22;3822;48.784;9.174;2022-11-20T02:04:51;8.80;93.80
7562;DHT22;3822;48.784;9.174;2022-11-20T02:07:20;8.70;93.70
7562;DHT22;3822;48.784;9.174;2022-11-20T02:09:47;8.70;93.60
7562;DHT22;3822;48.784;9.174;2022-11-20T02:12:14;8.60;93.50
7562;DHT22;3822;48.784;9.174;2022-11-20T02:15:00;8.60;93.50
7562;DHT22;3822;48.784;9.174;2022-11-20T02:17:26;8.60;93.50
7562;DHT22;3822;48.784;9.174;2022-11-20T02:19:53;8.60;93.50
7562;DHT22;3822;48.784;9.174;2022-11-20T02:25:38;8.50;93.40
7562;DHT22;3822;48.784;9.174;2022-11-20T02:28:06;8.50;93.50
7562;DHT22;3822;48.784;9.174;2022-11-20T02:30:32;8.50;93.50
7562;DHT22;3822;48.784;9.174;2022-11-20T02:33:00;8.50;93.50
7562;DHT22;3822;48.784;9.174;2022-11-20T02:37:53;8.60;93.50
7562;DHT22;3822;48.784;9.174;2022-11-20T02:40:20;8.60;93.50
7562;DHT22;3822;48.784;9.174;2022-11-20T02:42:47;8.60;93.50
7562;DHT22;3822;48.784;9.174;2022-11-20T02:45:14;8.60;93.50
7562;DHT22;3822;48.784;9.174;2022-11-20T02:47:41;8.60;93.40
7562;DHT22;3822;48.784;9.174;2022-11-20T02:50:10;8.60;93.40
7562;DHT22;3822;48.784;9.174;2022-11-20T02:52:36;8.60;93.40
7562;DHT22;3822;48.784;9.174;2022-11-20T02:55:03;8.50;93.30
7562;DHT22;3822;48.784;9.174;2022-11-20T02:57:29;8.50;93.30
7562;DHT22;3822;48.784;9.174;2022-11-20T02:59:56;8.50;93.30
7562;DHT22;3822;48.784;9.174;2022-11-20T03:02:22;8.50;93.30
7562;DHT22;3822;48.784;9.174;2022-11-20T03:04:48;8.50;93.30
7562;DHT22;3822;48.784;9.174;2022-11-20T03:07:15;8.50;93.30
7562;DHT22;3822;48.784;9.174;2022-11-20T03:09:41;8.50;93.40
7562;DHT22;3822;48.784;9.174;2022-11-20T03:12:07;8.50;93.40
7562;DHT22;3822;48.784;9.174;2022-11-20T03:14:34;8.50;93.40
7562;DHT22;3822;48.784;9.174;2022-11-20T03:17:01;8.50;93.40
7562;DHT22;3822;48.784;9.174;2022-11-20T03:19:28;8.40;93.30
7562;DHT22;3822;48.784;9.174;2022-11-20T03:21:54;8.40;93.30
7562;DHT22;3822;48.784;9.174;2022-11-20T03:24:20;8.40;93.40
7562;DHT22;3822;48.784;9.174;2022-11-20T03:26:47;8.40;93.40
7562;DHT22;3822;48.784;9.174;2022-11-20T03:29:13;9.60;93.90
7562;DHT22;3822;48.784;9.174;2022-11-20T03:31:40;8.40;93.40
7562;DHT22;3822;48.784;9.174;2022-11-20T03:34:08;8.40;93.30
7562;DHT22;3822;48.784;9.174;2022-11-20T03:36:39;8.40;93.40
7562;DHT22;3822;48.784;9.174;2022-11-20T03:39:06;8.40;93.40
7562;DHT22;3822;48.784;9.174;2022-11-20T03:41:37;8.40;93.40
7562;DHT22;3822;48.784;9.174;2022-11-20T03:44:05;8.40;93.50
7562;DHT22;3822;48.784;9.174;2022-11-20T03:46:33;8.40;93.50
7562;DHT22;3822;48.784;9.174;2022-11-20T03:49:00;8.30;93.50
7562;DHT22;3822;48.784;9.174;2022-11-20T03:51:27;8.30;93.50
7562;DHT22;3822;48.784;9.174;2022-11-20T03:53:56;8.30;93.50
7562;DHT22;3822;48.784;9.174;2022-11-20T03:56:25;8.30;93.80
7562;DHT22;3822;48.784;9.174;2022-11-20T03:58:53;8.30;93.60
7562;DHT22;3822;48.784;9.174;2022-11-20T04:01:20;8.20;93.60
7562;DHT22;3822;48.784;9.174;2022-11-20T04:03:51;8.20;93.60
7562;DHT22;3822;48.784;9.174;2022-11-20T04:06:19;8.20;93.60
7562;DHT22;3822;48.784;9.174;2022-11-20T04:08:47;8.20;93.60
7562;DHT22;3822;48.784;9.174;2022-11-20T04:11:15;8.10;93.60
7562;DHT22;3822;48.784;9.174;2022-11-20T04:13:45;8.10;93.60
7562;DHT22;3822;48.784;9.174;2022-11-20T04:16:13;8.00;93.60
7562;DHT22;3822;48.784;9.174;2022-11-20T04:18:39;8.00;93.60
7562;DHT22;3822;48.784;9.174;2022-11-20T04:21:05;8.00;93.70
7562;DHT22;3822;48.784;9.174;2022-11-20T04:23:32;7.90;93.60
7562;DHT22;3822;48.784;9.174;2022-11-20T04:26:03;7.90;93.60
7562;DHT22;3822;48.784;9.174;2022-11-20T04:28:30;7.90;93.70
7562;DHT22;3822;48.784;9.174;2022-11-20T04:31:03;7.90;93.70
7562;DHT22;3822;48.784;9.174;2022-11-20T04:33:34;7.90;93.70
7562;DHT22;3822;48.784;9.174;2022-11-20T04:36:05;7.80;93.70
7562;DHT22;3822;48.784;9.174;2022-11-20T04:38:34;7.80;93.70
7562;DHT22;3822;48.784;9.174;2022-11-20T04:41:01;7.80;93.70
7562;DHT22;3822;48.784;9.174;2022-11-20T04:43:29;7.80;93.70
7562;DHT22;3822;48.784;9.174;2022-11-20T04:45:56;7.80;93.70
7562;DHT22;3822;48.784;9.174;2022-11-20T04:48:24;7.80;93.80
7562;DHT22;3822;48.784;9.174;2022-11-20T04:50:51;7.80;93.80
7562;DHT22;3822;48.784;9.174;2022-11-20T04:53:18;7.90;93.80
7562;DHT22;3822;48.784;9.174;2022-11-20T04:55:45;7.80;93.80
7562;DHT22;3822;48.784;9.174;2022-11-20T04:58:12;7.90;93.90
7562;DHT22;3822;48.784;9.174;2022-11-20T05:00:38;7.90;93.90
7562;DHT22;3822;48.784;9.174;2022-11-20T05:03:05;7.90;93.90
7562;DHT22;3822;48.784;9.174;2022-11-20T05:05:33;7.90;93.80
7562;DHT22;3822;48.784;9.174;2022-11-20T05:08:00;7.90;93.80
7562;DHT22;3822;48.784;9.174;2022-11-20T05:10:26;7.90;93.70
7562;DHT22;3822;48.784;9.174;2022-11-20T05:12:54;7.90;93.70
7562;DHT22;3822;48.784;9.174;2022-11-20T05:15:20;7.80;93.70
7562;DHT22;3822;48.784;9.174;2022-11-20T05:17:50;7.80;93.70
7562;DHT22;3822;48.784;9.174;2022-11-20T05:20:17;7.80;93.80
7562;DHT22;3822;48.784;9.174;2022-11-20T05:22:44;7.80;93.80
7562;DHT22;3822;48.784;9.174;2022-11-20T05:25:11;7.80;93.80
7562;DHT22;3822;48.784;9.174;2022-11-20T05:27:37;7.80;93.80
7562;DHT22;3822;48.784;9.174;2022-11-20T05:30:04;7.80;93.80
7562;DHT22;3822;48.784;9.174;2022-11-20T05:32:31;7.80;93.80
7562;DHT22;3822;48.784;9.174;2022-11-20T05:34:57;7.90;93.90
7562;DHT22;3822;48.784;9.174;2022-11-20T05:37:23;7.90;93.90
7562;DHT22;3822;48.784;9.174;2022-11-20T05:39:49;7.90;93.90
7562;DHT22;3822;48.784;9.174;2022-11-20T05:42:16;7.90;93.90
7562;DHT22;3822;48.784;9.174;2022-11-20T05:45:00;8.00;93.90
7562;DHT22;3822;48.784;9.174;2022-11-20T05:47:28;8.00;94.00
7562;DHT22;3822;48.784;9.174;2022-11-20T05:49:58;8.00;93.90
7562;DHT22;3822;48.784;9.174;2022-11-20T05:52:24;8.10;94.00
7562;DHT22;3822;48.784;9.174;2022-11-20T05:54:51;8.10;94.00
7562;DHT22;3822;48.784;9.174;2022-11-20T05:57:17;8.20;94.00
7562;DHT22;3822;48.784;9.174;2022-11-20T05:59:43;8.20;93.90
7562;DHT22;3822;48.784;9.174;2022-11-20T06:02:09;8.20;93.90
7562;DHT22;3822;48.784;9.174;2022-11-20T06:04:36;8.20;93.90
7562;DHT22;3822;48.784;9.174;2022-11-20T06:07:02;8.20;93.90
7562;DHT22;3822;48.784;9.174;2022-11-20T06:09:28;8.20;93.80
7562;DHT22;3822;48.784;9.174;2022-11-20T06:11:55;8.20;93.80
7562;DHT22;3822;48.784;9.174;2022-11-20T06:14:21;8.20;93.80
7562;DHT22;3822;48.784;9.174;2022-11-20T06:16:47;8.20;93.80
7562;DHT22;3822;48.784;9.174;2022-11-20T06:19:14;8.20;93.80
7562;DHT22;3822;48.784;9.174;2022-11-20T06:21:41;8.20;93.80
7562;DHT22;3822;48.784;9.174;2022-11-20T06:24:09;8.20;93.80
7562;DHT22;3822;48.784;9.174;2022-11-20T06:26:36;8.20;93.80
7562;DHT22;3822;48.784;9.174;2022-11-20T06:29:02;8.20;93.80
7562;DHT22;3822;48.784;9.174;2022-11-20T06:31:29;8.20;93.80
7562;DHT22;3822;48.784;9.174;2022-11-20T06:33:55;8.30;93.90
7562;DHT22;3822;48.784;9.174;2022-11-20T06:36:22;8.30;93.90
7562;DHT22;3822;48.784;9.174;2022-11-20T06:38:48;8.30;93.80
7562;DHT22;3822;48.784;9.174;2022-11-20T06:41:16;8.30;93.80
7562;DHT22;3822;48.784;9.174;2022-11-20T06:43:43;8.30;93.80
7562;DHT22;3822;48.784;9.174;2022-11-20T06:46:11;8.40;93.80
7562;DHT22;3822;48.784;9.174;2022-11-20T06:48:40;8.40;93.80
7562;DHT22;3822;48.784;9.174;2022-11-20T06:51:06;8.40;93.80
7562;DHT22;3822;48.784;9.174;2022-11-20T06:53:33;8.40;93.70
7562;DHT22;3822;48.784;9.174;2022-11-20T06:56:00;8.40;93.70
7562;DHT22;3822;48.784;9.174;2022-11-20T06:58:27;8.40;93.70
7562;DHT22;3822;48.784;9.174;2022-11-20T07:00:59;8.40;93.70
7562;DHT22;3822;48.784;9.174;2022-11-20T07:03:26;8.40;93.70
7562;DHT22;3822;48.784;9.174;2022-11-20T07:05:56;8.40;93.60
7562;DHT22;3822;48.784;9.174;2022-11-20T07:08:23;8.40;93.60
7562;DHT22;3822;48.784;9.174;2022-11-20T07:10:50;8.30;93.60
7562;DHT22;3822;48.784;9.174;2022-11-20T07:13:16;8.30;93.50
7562;DHT22;3822;48.784;9.174;2022-11-20T07:15:43;8.40;93.50
7562;DHT22;3822;48.784;9.174;2022-11-20T07:18:09;8.30;93.50
7562;DHT22;3822;48.784;9.174;2022-11-20T07:20:35;8.30;93.50
7562;DHT22;3822;48.784;9.174;2022-11-20T07:23:02;8.40;93.50
7562;DHT22;3822;48.784;9.174;2022-11-20T07:25:28;8.40;93.50
7562;DHT22;3822;48.784;9.174;2022-11-20T07:27:58;8.40;93.50
7562;DHT22;3822;48.784;9.174;2022-11-20T07:30:25;8.40;93.50
7562;DHT22;3822;48.784;9.174;2022-11-20T07:32:54;8.40;93.50
7562;DHT22;3822;48.784;9.174;2022-11-20T07:35:21;8.40;93.50
7562;DHT22;3822;48.784;9.174;2022-11-20T07:37:48;8.50;93.50
7562;DHT22;3822;48.784;9.174;2022-11-20T07:40:15;8.50;93.50
7562;DHT22;3822;48.784;9.174;2022-11-20T07:42:49;8.50;93.40
7562;DHT22;3822;48.784;9.174;2022-11-20T07:45:16;8.50;93.40
7562;DHT22;3822;48.784;9.174;2022-11-20T07:47:46;8.50;93.40
7562;DHT22;3822;48.784;9.174;2022-11-20T07:50:12;8.40;93.30
7562;DHT22;3822;48.784;9.174;2022-11-20T07:52:39;8.40;93.40
7562;DHT22;3822;48.784;9.174;2022-11-20T07:55:06;8.50;93.40
7562;DHT22;3822;48.784;9.174;2022-11-20T07:57:33;7.10;92.90
7562;DHT22;3822;48.784;9.174;2022-11-20T08:00:00;8.50;93.40
7562;DHT22;3822;48.784;9.174;2022-11-20T08:02:26;8.50;93.40
7562;DHT22;3822;48.784;9.174;2022-11-20T08:04:52;8.50;93.40
7562;DHT22;3822;48.784;9.174;2022-11-20T08:07:18;8.50;93.40
7562;DHT22;3822;48.784;9.174;2022-11-20T08:09:45;8.50;93.40
7562;DHT22;3822;48.784;9.174;2022-11-20T08:12:19;8.60;93.40
7562;DHT22;3822;48.784;9.174;2022-11-20T08:15:04;8.60;93.40
7562;DHT22;3822;48.784;9.174;2022-11-20T08:17:31;8.60;93.40
7562;DHT22;3822;48.784;9.174;2022-11-20T08:19:57;8.70;93.40
7562;DHT22;3822;48.784;9.174;2022-11-20T08:22:23;8.70;93.40
7562;DHT22;3822;48.784;9.174;2022-11-20T08:24:51;8.70;93.40
7562;DHT22;3822;48.784;9.174;2022-11-20T08:27:17;8.70;93.30
7562;DHT22;3822;48.784;9.174;2022-11-20T08:29:43;8.70;93.30
7562;DHT22;3822;48.784;9.174;2022-11-20T08:32:09;8.70;93.30
7562;DHT22;3822;48.784;9.174;2022-11-20T08:34:36;8.70;93.40
7562;DHT22;3822;48.784;9.174;2022-11-20T08:37:02;8.70;93.30
7562;DHT22;3822;48.784;9.174;2022-11-20T08:39:28;8.70;93.30
7562;DHT22;3822;48.784;9.174;2022-11-20T08:41:55;10.20;93.50
7562;DHT22;3822;48.784;9.174;2022-11-20T08:44:21;8.70;93.30
7562;DHT22;3822;48.784;9.174;2022-11-20T08:46:47;8.70;93.40
7562;DHT22;3822;48.784;9.174;2022-11-20T08:49:14;8.70;93.40
7562;DHT22;3822;48.784;9.174;2022-11-20T08:51:41;8.80;93.40
7562;DHT22;3822;48.784;9.174;2022-11-20T08:54:08;8.80;93.40
7562;DHT22;3822;48.784;9.174;2022-11-20T08:56:34;8.80;93.40
7562;DHT22;3822;48.784;9.174;2022-11-20T08:59:01;8.80;93.50
7562;DHT22;3822;48.784;9.174;2022-11-20T09:01:27;8.80;93.50
7562;DHT22;3822;48.784;9.174;2022-11-20T09:03:56;8.90;93.50
7562;DHT22;3822;48.784;9.174;2022-11-20T09:06:23;8.90;93.40
7562;DHT22;3822;48.784;9.174;2022-11-20T09:08:52;9.00;93.40
7562;DHT22;3822;48.784;9.174;2022-11-20T09:11:19;9.00;93.40
7562;DHT22;3822;48.784;9.174;2022-11-20T09:13:45;9.00;93.40
7562;DHT22;3822;48.784;9.174;2022-11-20T09:16:11;9.00;93.30
7562;DHT22;3822;48.784;9.174;2022-11-20T09:18:38;9.00;93.30
7562;DHT22;3822;48.784;9.174;2022-11-20T09:21:05;9.10;93.30
7562;DHT22;3822;48.784;9.174;2022-11-20T09:23:34;9.10;93.30
7562;DHT22;3822;48.784;9.174;2022-11-20T09:26:01;9.20;93.30
7562;DHT22;3822;48.784;9.174;2022-11-20T09:28:32;9.20;93.30
7562;DHT22;3822;48.784;9.174;2022-11-20T09:30:59;9.20;93.30
7562;DHT22;3822;48.784;9.174;2022-11-20T09:33:25;9.20;93.30
7562;DHT22;3822;48.784;9.174;2022-11-20T09:35:52;9.20;93.20
7562;DHT22;3822;48.784;9.174;2022-11-20T09:38:18;9.30;93.20
7562;DHT22;3822;48.784;9.174;2022-11-20T09:44:02;9.20;93.20
7562;DHT22;3822;48.784;9.174;2022-11-20T09:46:47;9.30;93.30
7562;DHT22;3822;48.784;9.174;2022-11-20T09:49:23;9.30;93.20
7562;DHT22;3822;48.784;9.174;2022-11-20T09:51:58;9.30;93.10
7562;DHT22;3822;48.784;9.174;2022-11-20T09:54:28;9.30;93.00
7562;DHT22;3822;48.784;9.174;2022-11-20T09:57:01;9.20;92.90
7562;DHT22;3822;48.784;9.174;2022-11-20T09:59:37;9.20;92.90
7562;DHT22;3822;48.784;9.174;2022-11-20T10:07:53;9.30;92.80
7562;DHT22;3822;48.784;9.174;2022-11-20T10:26:22;9.20;92.90
7562;DHT22;3822;48.784;9.174;2022-11-20T10:31:43;9.20;93.30
7562;DHT22;3822;48.784;9.174;2022-11-20T10:37:02;9.20;93.80
7562;DHT22;3822;48.784;9.174;2022-11-20T10:39:42;9.20;94.00
7562;DHT22;3822;48.784;9.174;2022-11-20T10:42:17;9.20;94.10
7562;DHT22;3822;48.784;9.174;2022-11-20T10:45:02;9.20;94.30
7562;DHT22;3822;48.784;9.174;2022-11-20T10:47:39;9.20;94.40
7562;DHT22;3822;48.784;9.174;2022-11-20T10:50:09;9.10;94.50
7562;DHT22;3822;48.784;9.174;2022-11-20T10:52:42;9.20;94.70
7562;DHT22;3822;48.784;9.174;2022-11-20T10:55:39;9.10;94.70
7562;DHT22;3822;48.784;9.174;2022-11-20T10:58:10;9.10;94.80
7562;DHT22;3822;48.784;9.174;2022-11-20T11:00:40;9.10;94.80
7562;DHT22;3822;48.784;9.174;2022-11-20T11:06:00;9.00;94.90
7562;DHT22;3822;48.784;9.174;2022-11-20T11:08:34;9.00;94.90
7562;DHT22;3822;48.784;9.174;2022-11-20T11:11:12;9.10;95.10
7562;DHT22;3822;48.784;9.174;2022-11-20T11:16:31;9.00;95.20
7562;DHT22;3822;48.784;9.174;2022-11-20T11:19:11;9.10;95.30
7562;DHT22;3822;48.784;9.174;2022-11-20T11:21:38;9.10;95.40
7562;DHT22;3822;48.784;9.174;2022-11-20T11:24:35;9.10;95.60
7562;DHT22;3822;48.784;9.174;2022-11-20T11:27:01;9.10;95.50
7562;DHT22;3822;48.784;9.174;2022-11-20T11:29:32;9.20;95.70
7562;DHT22;3822;48.784;9.174;2022-11-20T11:32:12;9.20;95.80
7562;DHT22;3822;48.784;9.174;2022-11-20T11:34:39;9.10;95.80
7562;DHT22;3822;48.784;9.174;2022-11-20T11:37:10;9.60;95.90
7562;DHT22;3822;48.784;9.174;2022-11-20T11:39:40;9.80;95.80
7562;DHT22;3822;48.784;9.174;2022-11-20T11:42:07;9.90;95.80
7562;DHT22;3822;48.784;9.174;2022-11-20T11:44:43;10.10;95.20
7562;DHT22;3822;48.784;9.174;2022-11-20T11:47:32;10.20;95.00
7562;DHT22;3822;48.784;9.174;2022-11-20T11:53:18;10.50;94.50
7562;DHT22;3822;48.784;9.174;2022-11-20T12:03:47;11.10;93.70
7562;DHT22;3822;48.784;9.174;2022-11-20T12:06:20;11.40;93.30
7562;DHT22;3822;48.784;9.174;2022-11-20T12:09:05;11.50;93.00
7562;DHT22;3822;48.784;9.174;2022-11-20T12:11:45;11.70;92.70
7562;DHT22;3822;48.784;9.174;2022-11-20T12:14:18;11.80;91.60
7562;DHT22;3822;48.784;9.174;2022-11-20T12:16:50;11.80;90.70
7562;DHT22;3822;48.784;9.174;2022-11-20T12:19:18;11.80;90.60
7562;DHT22;3822;48.784;9.174;2022-11-20T12:21:54;11.80;90.50
7562;DHT22;3822;48.784;9.174;2022-11-20T12:30:11;11.90;89.80
7562;DHT22;3822;48.784;9.174;2022-11-20T12:43:52;12.60;88.80
7562;DHT22;3822;48.784;9.174;2022-11-20T12:46:50;12.70;87.50
7562;DHT22;3822;48.784;9.174;2022-11-20T12:49:36;12.90;86.30
7562;DHT22;3822;48.784;9.174;2022-11-20T13:00:22;13.30;79.00
7562;DHT22;3822;48.784;9.174;2022-11-20T13:08:33;13.30;77.60
7562;DHT22;3822;48.784;9.174;2022-11-20T13:16:41;13.40;76.10
7562;DHT22;3822;48.784;9.174;2022-11-20T13:19:11;13.30;75.90
7562;DHT22;3822;48.784;9.174;2022-11-20T13:21:40;13.30;75.70
7562;DHT22;3822;48.784;9.174;2022-11-20T13:24:19;13.20;75.90
7562;DHT22;3822;48.784;9.174;2022-11-20T13:29:34;13.00;75.00
7562;DHT22;3822;48.784;9.174;2022-11-20T13:32:17;12.90;75.30
7562;DHT22;3822;48.784;9.174;2022-11-20T13:34:52;12.90;75.30
7562;DHT22;3822;48.784;9.174;2022-11-20T13:37:35;12.90;75.70
7562;DHT22;3822;48.784;9.174;2022-11-20T13:42:45;13.10;75.70
7562;DHT22;3822;48.784;9.174;2022-11-20T13:45:25;13.10;74.70
7562;DHT22;3822;48.784;9.174;2022-11-20T13:47:53;13.10;74.40
7562;DHT22;3822;48.784;9.174;2022-11-20T13:53:13;13.00;73.90
7562;DHT22;3822;48.784;9.174;2022-11-20T13:55:46;12.90;73.70
7562;DHT22;3822;48.784;9.174;2022-11-20T13:58:44;12.70;73.40
7562;DHT22;3822;48.784;9.174;2022-11-20T14:01:21;12.60;73.40
7562;DHT22;3822;48.784;9.174;2022-11-20T14:03:50;12.40;74.00
7562;DHT22;3822;48.784;9.174;2022-11-20T14:08:57;12.10;76.20
7562;DHT22;3822;48.784;9.174;2022-11-20T14:11:25;12.10;77.30
7562;DHT22;3822;48.784;9.174;2022-11-20T14:14:01;12.00;77.70
7562;DHT22;3822;48.784;9.174;2022-11-20T14:16:29;12.00;78.20
7562;DHT22;3822;48.784;9.174;2022-11-20T14:19:45;12.00;78.70
7562;DHT22;3822;48.784;9.174;2022-11-20T14:24:22;11.80;79.30
7562;DHT22;3822;48.784;9.174;2022-11-20T14:26:49;11.80;79.70
7562;DHT22;3822;48.784;9.174;2022-11-20T14:29:21;11.70;80.00
7562;DHT22;3822;48.784;9.174;2022-11-20T14:31:52;11.60;80.30
7562;DHT22;3822;48.784;9.174;2022-11-20T14:34:26;11.50;80.70
7562;DHT22;3822;48.784;9.174;2022-11-20T14:36:57;11.40;81.10
7562;DHT22;3822;48.784;9.174;2022-11-20T14:39:30;11.30;81.50
7562;DHT22;3822;48.784;9.174;2022-11-20T14:41:57;11.30;81.90
7562;DHT22;3822;48.784;9.174;2022-11-20T14:44:27;11.20;82.20
7562;DHT22;3822;48.784;9.174;2022-11-20T14:47:00;11.20;82.50
7562;DHT22;3822;48.784;9.174;2022-11-20T14:49:29;11.50;83.00
7562;DHT22;3822;48.784;9.174;2022-11-20T14:51:59;11.10;82.70
7562;DHT22;3822;48.784;9.174;2022-11-20T14:54:27;11.10;82.80
7562;DHT22;3822;48.784;9.174;2022-11-20T14:59:25;11.00;82.30
7562;DHT22;3822;48.784;9.174;2022-11-20T15:01:59;11.00;82.40
7562;DHT22;3822;48.784;9.174;2022-11-20T15:04:28;10.90;82.40
7562;DHT22;3822;48.784;9.174;2022-11-20T15:06:55;10.90;82.30
7562;DHT22;3822;48.784;9.174;2022-11-20T15:09:25;10.90;82.50
7562;DHT22;3822;48.784;9.174;2022-11-20T15:11:53;10.80;82.40
7562;DHT22;3822;48.784;9.174;2022-11-20T15:14:21;10.80;82.40
7562;DHT22;3822;48.784;9.174;2022-11-20T15:16:48;10.80;82.70
7562;DHT22;3822;48.784;9.174;2022-11-20T15:19:20;10.80;82.70
7562;DHT22;3822;48.784;9.174;2022-11-20T15:21:51;10.80;82.90
7562;DHT22;3822;48.784;9.174;2022-11-20T15:24:17;10.80;82.90
7562;DHT22;3822;48.784;9.174;2022-11-20T15:26:43;10.80;83.00
7562;DHT22;3822;48.784;9.174;2022-11-20T15:29:14;10.80;83.10
7562;DHT22;3822;48.784;9.174;2022-11-20T15:31:44;10.80;83.20
7562;DHT22;3822;48.784;9.174;2022-11-20T15:34:11;10.80;83.30
7562;DHT22;3822;48.784;9.174;2022-11-20T15:36:38;10.80;83.40
7562;DHT22;3822;48.784;9.174;2022-11-20T15:39:05;10.80;83.50
7562;DHT22;3822;48.784;9.174;2022-11-20T15:41:35;10.80;83.60
7562;DHT22;3822;48.784;9.174;2022-11-20T15:44:02;10.90;83.70
7562;DHT22;3822;48.784;9.174;2022-11-20T15:46:30;10.90;83.80
7562;DHT22;3822;48.784;9.174;2022-11-20T15:49:03;10.80;83.70
7562;DHT22;3822;48.784;9.174;2022-11-20T15:51:34;10.80;83.90
7562;DHT22;3822;48.784;9.174;2022-11-20T15:54:03;10.80;83.80
7562;DHT22;3822;48.784;9.174;2022-11-20T15:56:35;10.80;84.50
7562;DHT22;3822;48.784;9.174;2022-11-20T15:59:01;10.70;83.80
7562;DHT22;3822;48.784;9.174;2022-11-20T16:01:28;10.70;84.00
7562;DHT22;3822;48.784;9.174;2022-11-20T16:03:54;10.70;84.10
7562;DHT22;3822;48.784;9.174;2022-11-20T16:06:21;10.70;84.20
7562;DHT22;3822;48.784;9.174;2022-11-20T16:08:47;10.70;84.30
7562;DHT22;3822;48.784;9.174;2022-11-20T16:11:15;10.60;84.30
7562;DHT22;3822;48.784;9.174;2022-11-20T16:13:42;10.60;84.40
7562;DHT22;3822;48.784;9.174;2022-11-20T16:16:31;10.60;84.50
7562;DHT22;3822;48.784;9.174;2022-11-20T16:18:59;10.60;84.60
7562;DHT22;3822;48.784;9.174;2022-11-20T16:21:26;10.60;84.70
7562;DHT22;3822;48.784;9.174;2022-11-20T16:23:59;10.60;84.80
7562;DHT22;3822;48.784;9.174;2022-11-20T16:26:25;10.50;84.70
7562;DHT22;3822;48.784;9.174;2022-11-20T16:28:52;10.50;84.80
7562;DHT22;3822;48.784;9.174;2022-11-20T16:31:19;10.50;84.90
7562;DHT22;3822;48.784;9.174;2022-11-20T16:33:53;10.50;85.00
7562;DHT22;3822;48.784;9.174;2022-11-20T16:36:21;10.50;85.20
7562;DHT22;3822;48.784;9.174;2022-11-20T16:38:54;10.50;85.30
7562;DHT22;3822;48.784;9.174;2022-11-20T16:41:21;10.50;85.40
7562;DHT22;3822;48.784;9.174;2022-11-20T16:43:49;10.50;85.50
7562;DHT22;3822;48.784;9.174;2022-11-20T16:46:18;10.50;85.50
7562;DHT22;3822;48.784;9.174;2022-11-20T16:48:51;10.50;85.60
7562;DHT22;3822;48.784;9.174;2022-11-20T16:51:24;10.40;85.70
7562;DHT22;3822;48.784;9.174;2022-11-20T16:53:51;10.40;85.90
7562;DHT22;3822;48.784;9.174;2022-11-20T16:56:19;10.40;86.00
7562;DHT22;3822;48.784;9.174;2022-11-20T16:58:46;10.40;86.20
7562;DHT22;3822;48.784;9.174;2022-11-20T17:01:15;10.40;86.20
7562;DHT22;3822;48.784;9.174;2022-11-20T17:03:46;10.30;86.20
7562;DHT22;3822;48.784;9.174;2022-11-20T17:06:20;10.30;86.30
7562;DHT22;3822;48.784;9.174;2022-11-20T17:08:47;10.30;86.40
7562;DHT22;3822;48.784;9.174;2022-11-20T17:11:15;10.20;86.30
7562;DHT22;3822;48.784;9.174;2022-11-20T17:13:42;11.30;87.50
7562;DHT22;3822;48.784;9.174;2022-11-20T17:16:10;10.10;86.50
7562;DHT22;3822;48.784;9.174;2022-11-20T17:18:39;10.10;86.60
7562;DHT22;3822;48.784;9.174;2022-11-20T17:21:06;10.10;86.80
7562;DHT22;3822;48.784;9.174;2022-11-20T17:23:34;10.10;86.80
7562;DHT22;3822;48.784;9.174;2022-11-20T17:28:29;10.10;86.90
7562;DHT22;3822;48.784;9.174;2022-11-20T17:31:03;10.10;87.00
7562;DHT22;3822;48.784;9.174;2022-11-20T17:33:33;10.00;86.90
7562;DHT22;3822;48.784;9.174;2022-11-20T17:36:00;10.00;86.90
7562;DHT22;3822;48.784;9.174;2022-11-20T17:38:26;10.00;87.00
7562;DHT22;3822;48.784;9.174;2022-11-20T17:40:53;9.90;87.90
7562;DHT22;3822;48.784;9.174;2022-11-20T17:43:27;9.90;88.00
7562;DHT22;3822;48.784;9.174;2022-11-20T17:45:53;9.80;88.10
7562;DHT22;3822;48.784;9.174;2022-11-20T17:48:19;9.80;88.10
7562;DHT22;3822;48.784;9.174;2022-11-20T17:50:45;9.80;88.10
7562;DHT22;3822;48.784;9.174;2022-11-20T17:53:12;9.70;88.10
7562;DHT22;3822;48.784;9.174;2022-11-20T17:55:38;9.70;88.10
7562;DHT22;3822;48.784;9.174;2022-11-20T17:58:26;9.70;88.20
7562;DHT22;3822;48.784;9.174;2022-11-20T18:00:54;9.60;88.10
7562;DHT22;3822;48.784;9.174;2022-11-20T18:03:29;9.60;88.20
7562;DHT22;3822;48.784;9.174;2022-11-20T18:05:55;9.60;88.40
7562;DHT22;3822;48.784;9.174;2022-11-20T18:08:21;9.60;88.40
7562;DHT22;3822;48.784;9.174;2022-11-20T18:10:47;9.60;88.40
7562;DHT22;3822;48.784;9.174;2022-11-20T18:13:14;9.60;88.40
7562;DHT22;3822;48.784;9.174;2022-11-20T18:15:40;9.60;88.40